createdAt,value
2017-08-13T06:52:19.032Z,84
2017-08-13T07:03:19.441Z,84.1
2017-08-13T07:14:18.944Z,81.3
2017-08-13T07:25:18.348Z,79.5
2017-08-13T07:36:18.477Z,78.8
2017-08-13T07:47:18.723Z,77.8
2017-08-13T07:58:18.967Z,78.6
2017-08-13T08:09:19.199Z,79.3
2017-08-13T08:20:19.218Z,79.8
2017-08-13T08:31:19.267Z,80.1
2017-08-13T08:42:18.835Z,80.7
2017-08-13T08:53:18.446Z,80.6
2017-08-13T09:04:18.544Z,80.8
2017-08-13T09:15:18.954Z,81.3
2017-08-13T09:26:19.415Z,81
2017-08-13T09:37:18.641Z,80.9
2017-08-13T09:48:20.333Z,81.2
2017-08-13T09:59:18.913Z,81.5
2017-08-13T10:10:19.488Z,81.5
2017-08-13T10:21:18.561Z,81.5
2017-08-13T10:32:19.410Z,81.7
2017-08-13T10:43:24.096Z,81.8
2017-08-13T10:54:18.563Z,81.1
2017-08-13T11:05:18.402Z,80.9
2017-08-13T11:16:18.602Z,80.5
2017-08-13T11:27:25.583Z,80
2017-08-13T11:38:26.839Z,80.9
2017-08-13T11:49:18.391Z,80.7
2017-08-13T12:00:18.698Z,81.5
2017-08-13T12:11:18.714Z,79.8
2017-08-13T12:22:19.137Z,77.9
2017-08-13T12:33:19.135Z,77.7
2017-08-13T12:44:19.336Z,76.9
2017-08-13T12:55:18.479Z,75.9
2017-08-13T13:06:18.678Z,75
2017-08-13T13:17:19.504Z,74.7
2017-08-13T13:28:19.143Z,75.9
2017-08-13T13:39:18.306Z,76.3
2017-08-13T13:50:18.991Z,76.3
2017-08-13T14:01:18.851Z,76.9
2017-08-13T14:12:19.118Z,77.9
2017-08-13T14:23:18.470Z,77.5
2017-08-13T14:34:18.617Z,77.9
2017-08-13T14:45:19.463Z,78.3
2017-08-13T14:56:20.617Z,78.2
2017-08-13T15:07:19.399Z,77.7
2017-08-13T15:18:19.080Z,78
2017-08-13T15:29:19.039Z,78.6
2017-08-13T15:40:18.773Z,78.2
2017-08-13T15:51:18.920Z,77.8
2017-08-13T16:02:18.571Z,77.8
2017-08-13T16:13:18.531Z,77.7
2017-08-13T16:24:18.811Z,77.5
2017-08-13T16:35:19.094Z,78.3
2017-08-13T16:46:19.236Z,77.4
2017-08-13T16:57:24.321Z,77
2017-08-13T17:08:18.207Z,75.6
2017-08-13T17:19:24.152Z,73.3
2017-08-13T17:30:19.424Z,71.9
2017-08-13T17:41:18.950Z,70.7
2017-08-13T17:52:18.974Z,70.1
2017-08-13T18:03:18.545Z,72.3
2017-08-13T18:14:19.299Z,72.6
2017-08-13T18:25:18.935Z,72.8
2017-08-13T18:36:19.261Z,72.5
2017-08-13T18:47:18.516Z,72.2
2017-08-13T18:58:23.914Z,72.5
2017-08-13T19:09:23.659Z,72.6
2017-08-13T19:20:19.507Z,72.4
2017-08-13T19:31:19.288Z,72.4
2017-08-13T19:42:18.926Z,72
2017-08-13T19:53:18.614Z,71.8
2017-08-13T20:04:19.129Z,72
2017-08-13T20:15:19.142Z,71.9
2017-08-13T20:26:19.220Z,71.4
2017-08-13T20:37:18.284Z,71.7
2017-08-13T20:48:18.892Z,71.6
2017-08-13T20:59:18.377Z,71.2
2017-08-13T21:10:18.647Z,71.7
2017-08-13T21:21:18.289Z,70.7
2017-08-13T21:32:19.071Z,70.6
2017-08-13T21:43:19.384Z,70.8
2017-08-13T21:54:19.049Z,70.1
2017-08-13T22:05:18.445Z,70.3
2017-08-13T22:16:19.579Z,70.2
2017-08-13T22:27:18.688Z,69.5
2017-08-13T22:38:19.177Z,69.3
2017-08-13T22:49:18.956Z,69.6
2017-08-13T23:00:19.257Z,69.8
2017-08-13T23:11:19.713Z,66.9
2017-08-13T23:22:23.448Z,64.9
2017-08-13T23:33:18.739Z,63.3
2017-08-13T23:44:18.934Z,62.3
2017-08-13T23:55:19.295Z,63.2
